createdAt,value
2022-12-20T00:01:38.138Z,-2.96
2022-12-20T00:04:41.622Z,-2.95
2022-12-20T00:07:44.733Z,-2.98
2022-12-20T00:10:49.285Z,-2.98
2022-12-20T00:13:53.184Z,-2.96
2022-12-20T00:16:57.035Z,-2.95
2022-12-20T00:19:59.846Z,-2.95
2022-12-20T00:23:03.819Z,-2.90
2022-12-20T00:26:10.928Z,-2.83
2022-12-20T00:29:13.948Z,-2.80
2022-12-20T00:32:16.592Z,-2.77
2022-12-20T00:35:20.308Z,-2.76
2022-12-20T00:38:25.652Z,-2.73
2022-12-20T00:41:33.501Z,-2.71
2022-12-20T00:44:36.767Z,-2.67
2022-12-20T00:47:39.718Z,-2.65
2022-12-20T00:50:42.356Z,-2.65
2022-12-20T00:53:46.352Z,-2.62
2022-12-20T00:56:49.259Z,-2.65
2022-12-20T00:59:52.023Z,-2.60
2022-12-20T01:02:54.924Z,-2.60
2022-12-20T01:06:03.107Z,-2.58
2022-12-20T01:09:07.022Z,-2.61
2022-12-20T01:12:09.831Z,-2.63
2022-12-20T01:15:13.114Z,-2.62
2022-12-20T01:18:16.708Z,-2.60
2022-12-20T01:21:26.025Z,-2.59
2022-12-20T01:24:29.765Z,-2.59
2022-12-20T01:27:32.639Z,-2.58
2022-12-20T01:30:40.823Z,-2.57
2022-12-20T01:33:46.375Z,-2.57
2022-12-20T01:36:49.660Z,-2.55
2022-12-20T01:39:52.765Z,-2.52
2022-12-20T01:42:56.634Z,-2.51
2022-12-20T01:45:59.937Z,-2.52
2022-12-20T01:49:12.077Z,-2.51
2022-12-20T01:52:23.495Z,-2.54
2022-12-20T01:55:28.715Z,-2.54
2022-12-20T01:58:32.555Z,-2.53
2022-12-20T02:01:36.108Z,-2.56
2022-12-20T02:04:39.777Z,-2.58
2022-12-20T02:07:46.084Z,-2.56
2022-12-20T02:11:16.255Z,-2.54
2022-12-20T02:14:49.275Z,-2.54
2022-12-20T02:18:14.893Z,-2.52
2022-12-20T02:21:20.913Z,-2.52
2022-12-20T02:24:40.005Z,-2.53
2022-12-20T02:28:22.049Z,-2.53
2022-12-20T02:31:31.853Z,-2.54
2022-12-20T02:34:38.269Z,-2.56
2022-12-20T02:37:49.787Z,-2.58
2022-12-20T02:40:59.430Z,-2.58
2022-12-20T02:44:28.189Z,-2.59
2022-12-20T02:47:36.470Z,-2.59
2022-12-20T02:50:49.846Z,-2.62
2022-12-20T02:53:53.316Z,-2.61
2022-12-20T02:57:02.473Z,-2.62
2022-12-20T03:00:18.811Z,-2.62
2022-12-20T03:03:25.225Z,-2.63
2022-12-20T03:06:28.136Z,-2.63
2022-12-20T03:09:41.502Z,-2.61
2022-12-20T03:12:44.500Z,-2.59
2022-12-20T03:15:47.978Z,-2.55
2022-12-20T03:18:51.367Z,-2.53
2022-12-20T03:21:55.593Z,-2.51
2022-12-20T03:24:58.108Z,-2.49
2022-12-20T03:28:02.258Z,-2.48
2022-12-20T03:31:05.551Z,-2.45
2022-12-20T03:34:09.955Z,-2.44
2022-12-20T03:37:13.539Z,-2.41
2022-12-20T03:40:16.760Z,-2.43
2022-12-20T03:43:20.733Z,-2.43
2022-12-20T03:46:23.925Z,-2.43
2022-12-20T03:49:27.386Z,-2.47
2022-12-20T03:52:31.149Z,-2.48
2022-12-20T03:55:33.810Z,-2.51
2022-12-20T03:58:37.116Z,-2.50
2022-12-20T04:01:40.970Z,-2.52
2022-12-20T04:04:44.060Z,-2.55
2022-12-20T04:07:46.970Z,-2.58
2022-12-20T04:11:08.558Z,-2.61
2022-12-20T04:14:11.792Z,-2.65
2022-12-20T04:17:15.561Z,-2.68
2022-12-20T04:20:20.017Z,-2.72
2022-12-20T04:23:24.156Z,-2.75
2022-12-20T04:26:27.201Z,-2.76
2022-12-20T04:29:32.105Z,-2.80
2022-12-20T04:32:35.015Z,-2.80
2022-12-20T04:35:38.537Z,-2.82
2022-12-20T04:38:41.617Z,-2.83
2022-12-20T04:41:44.802Z,-2.80
2022-12-20T04:44:51.304Z,-2.80
2022-12-20T04:47:56.720Z,-2.80
2022-12-20T04:51:00.794Z,-2.74
2022-12-20T04:54:03.994Z,-2.69
2022-12-20T04:57:09.979Z,-2.66
2022-12-20T05:00:18.252Z,-2.60
2022-12-20T05:03:23.245Z,-2.51
2022-12-20T05:06:26.973Z,-2.47
2022-12-20T05:09:29.853Z,-2.41
2022-12-20T05:12:33.247Z,-2.42
2022-12-20T05:15:37.868Z,-2.44
2022-12-20T05:18:48.612Z,-2.47
2022-12-20T05:22:12.220Z,-2.48
2022-12-20T05:25:37.574Z,-2.55
2022-12-20T05:28:45.231Z,-2.56
2022-12-20T05:31:48.824Z,-2.55
2022-12-20T05:34:52.084Z,-2.54
2022-12-20T05:37:59.855Z,-2.54
2022-12-20T05:41:06.781Z,-2.53
2022-12-20T05:44:09.789Z,-2.50
2022-12-20T05:47:13.383Z,-2.48
2022-12-20T05:50:19.164Z,-2.49
2022-12-20T05:53:38.666Z,-2.47
2022-12-20T05:56:49.114Z,-2.46
2022-12-20T05:59:58.199Z,-2.45
2022-12-20T06:03:10.583Z,-2.46
2022-12-20T06:06:15.413Z,-2.45
2022-12-20T06:09:19.267Z,-2.47
2022-12-20T06:12:24.334Z,-2.47
2022-12-20T06:15:29.733Z,-2.49
2022-12-20T06:18:35.631Z,-2.50
2022-12-20T06:21:41.201Z,-2.51
2022-12-20T06:24:48.576Z,-2.54
2022-12-20T06:27:53.524Z,-2.57
2022-12-20T06:30:59.091Z,-2.58
2022-12-20T06:34:02.375Z,-2.61
2022-12-20T06:37:06.469Z,-2.63
2022-12-20T06:40:13.308Z,-2.65
2022-12-20T06:43:17.096Z,-2.62
2022-12-20T06:46:20.804Z,-2.61
2022-12-20T06:49:26.114Z,-2.59
2022-12-20T06:52:30.237Z,-2.52
2022-12-20T06:55:34.735Z,-2.38
2022-12-20T06:58:39.205Z,-2.20
2022-12-20T07:01:45.166Z,-2.04
2022-12-20T07:04:52.773Z,-1.96
2022-12-20T07:07:56.122Z,-1.92
2022-12-20T07:11:08.666Z,-1.93
2022-12-20T07:14:11.922Z,-1.98
2022-12-20T07:17:17.186Z,-1.91
2022-12-20T07:20:22.584Z,-1.91
2022-12-20T07:23:27.992Z,-1.86
2022-12-20T07:26:36.867Z,-1.83
2022-12-20T07:29:43.192Z,-1.61
2022-12-20T07:32:49.203Z,-1.50
2022-12-20T07:35:54.843Z,-1.19
2022-12-20T07:38:58.525Z,-0.96
2022-12-20T07:42:02.499Z,-0.41
2022-12-20T07:45:17.562Z,-0.59
2022-12-20T07:48:23.948Z,-0.73
2022-12-20T07:51:36.762Z,-0.94
2022-12-20T07:54:58.230Z,-1.06
2022-12-20T07:58:07.379Z,-1.10
2022-12-20T08:01:13.205Z,-1.19
2022-12-20T08:04:21.771Z,-1.06
2022-12-20T08:07:27.793Z,-0.38
2022-12-20T08:10:31.463Z,-0.15
2022-12-20T08:13:34.428Z,-0.32
2022-12-20T08:16:37.356Z,-0.13
2022-12-20T08:19:41.660Z,0.52
2022-12-20T08:22:48.414Z,0.62
2022-12-20T08:25:52.595Z,0.90
2022-12-20T08:28:56.807Z,1.17
2022-12-20T08:32:01.220Z,1.00
2022-12-20T08:35:07.215Z,0.49
2022-12-20T08:38:12.224Z,0.21
2022-12-20T08:41:16.859Z,0.04
2022-12-20T08:44:22.381Z,-0.12
2022-12-20T08:47:27.407Z,0.00
2022-12-20T08:50:32.653Z,0.37
2022-12-20T08:53:44.191Z,0.19
2022-12-20T08:56:48.302Z,0.59
2022-12-20T08:59:51.848Z,0.82
2022-12-20T09:02:56.094Z,0.69
2022-12-20T09:06:05.665Z,0.72
2022-12-20T09:09:09.321Z,0.81
2022-12-20T09:12:17.204Z,0.80
2022-12-20T09:15:21.142Z,1.29
2022-12-20T09:18:25.131Z,1.51
2022-12-20T09:21:30.042Z,1.51
2022-12-20T09:24:33.191Z,1.55
2022-12-20T09:27:36.033Z,1.79
2022-12-20T09:30:41.892Z,1.53
2022-12-20T09:33:47.290Z,1.47
2022-12-20T09:36:51.748Z,1.54
2022-12-20T09:39:58.281Z,1.69
2022-12-20T09:43:02.174Z,1.95
2022-12-20T09:46:07.127Z,1.52
2022-12-20T09:49:19.357Z,1.55
2022-12-20T09:52:30.872Z,1.28
2022-12-20T09:56:03.698Z,1.32
2022-12-20T09:59:12.547Z,1.22
2022-12-20T10:05:54.184Z,1.32
2022-12-20T10:09:00.897Z,1.63
2022-12-20T10:12:15.836Z,1.67
2022-12-20T10:15:30.427Z,1.60
2022-12-20T10:19:14.118Z,1.91
2022-12-20T10:22:27.112Z,1.87
2022-12-20T10:25:35.298Z,1.62
2022-12-20T10:28:46.863Z,1.51
2022-12-20T10:32:01.001Z,1.56
2022-12-20T10:35:10.117Z,1.69
2022-12-20T10:38:27.069Z,1.61
2022-12-20T10:41:55.593Z,1.36
2022-12-20T10:45:00.466Z,1.14
2022-12-20T10:48:08.152Z,1.40
2022-12-20T10:51:16.449Z,1.46
2022-12-20T10:54:48.215Z,1.30
2022-12-20T10:57:54.405Z,1.21
2022-12-20T11:01:19.736Z,1.49
2022-12-20T11:04:35.181Z,1.54
2022-12-20T11:08:33.704Z,1.81
2022-12-20T11:11:25.014Z,1.94
2022-12-20T11:14:38.865Z,1.93
2022-12-20T11:17:56.068Z,1.91
2022-12-20T11:21:24.320Z,1.71
2022-12-20T11:25:01.189Z,1.64
2022-12-20T11:28:22.212Z,1.75
2022-12-20T11:31:37.410Z,1.75
2022-12-20T11:34:52.993Z,1.96
2022-12-20T11:38:17.186Z,2.00
2022-12-20T11:41:33.038Z,2.00
2022-12-20T11:45:09.617Z,2.11
2022-12-20T11:48:48.738Z,2.20
2022-12-20T11:52:14.995Z,2.33
2022-12-20T11:55:38.011Z,2.50
2022-12-20T11:59:02.587Z,2.57
2022-12-20T12:02:42.233Z,2.62
2022-12-20T12:06:06.260Z,2.40
2022-12-20T12:09:09.699Z,2.20
2022-12-20T12:12:33.048Z,2.03
2022-12-20T12:16:02.513Z,1.93
2022-12-20T12:19:11.688Z,1.82
2022-12-20T12:22:25.281Z,1.79
2022-12-20T12:25:28.651Z,1.79
2022-12-20T12:28:37.166Z,1.78
2022-12-20T12:31:51.339Z,2.36
2022-12-20T12:35:06.151Z,2.34
2022-12-20T12:38:44.494Z,2.18
2022-12-20T12:42:30.805Z,2.06
2022-12-20T12:45:44.400Z,2.32
2022-12-20T12:48:57.702Z,2.14
2022-12-20T12:52:05.621Z,2.14
2022-12-20T12:55:40.085Z,2.06
2022-12-20T12:59:08.164Z,2.08
2022-12-20T13:02:15.650Z,1.93
2022-12-20T13:05:32.780Z,1.85
2022-12-20T13:08:51.430Z,1.85
2022-12-20T13:12:01.458Z,1.87
2022-12-20T13:15:22.339Z,1.84
2022-12-20T13:18:29.199Z,1.80
2022-12-20T13:21:41.192Z,1.80
2022-12-20T13:24:48.465Z,1.81
2022-12-20T13:27:51.220Z,1.75
2022-12-20T13:31:01.644Z,1.76
2022-12-20T13:34:47.136Z,1.75
2022-12-20T13:38:26.131Z,1.69
2022-12-20T13:41:45.059Z,1.70
2022-12-20T13:44:56.103Z,1.67
2022-12-20T13:48:11.507Z,1.67
2022-12-20T13:51:18.840Z,1.66
2022-12-20T13:54:27.164Z,1.65
2022-12-20T13:57:46.718Z,1.65
2022-12-20T14:00:52.108Z,1.59
2022-12-20T14:04:06.163Z,1.55
2022-12-20T14:07:19.305Z,1.52
2022-12-20T14:10:33.109Z,1.48
2022-12-20T14:13:36.423Z,1.44
2022-12-20T14:16:42.214Z,1.42
2022-12-20T14:19:47.654Z,1.40
2022-12-20T14:23:04.689Z,1.39
2022-12-20T14:26:17.657Z,1.37
2022-12-20T14:29:35.092Z,1.32
2022-12-20T14:32:41.793Z,1.27
2022-12-20T14:35:50.120Z,1.24
2022-12-20T14:38:54.115Z,1.17
2022-12-20T14:42:20.352Z,1.13
2022-12-20T14:45:33.114Z,1.02
2022-12-20T14:48:36.909Z,0.99
2022-12-20T14:51:46.609Z,0.93
2022-12-20T14:55:10.383Z,0.90
2022-12-20T14:58:38.095Z,0.85
2022-12-20T15:01:45.332Z,0.78
2022-12-20T15:04:52.669Z,0.74
2022-12-20T15:07:56.012Z,0.70
2022-12-20T15:11:11.312Z,0.66
2022-12-20T15:14:37.184Z,0.62
2022-12-20T15:17:51.008Z,0.60
2022-12-20T15:21:09.025Z,0.56
2022-12-20T15:24:21.884Z,0.49
2022-12-20T15:27:27.095Z,0.46
2022-12-20T15:30:33.308Z,0.50
2022-12-20T15:33:47.124Z,0.52
2022-12-20T15:36:53.648Z,0.53
2022-12-20T15:40:03.145Z,0.49
2022-12-20T15:43:07.160Z,0.44
2022-12-20T15:46:32.136Z,0.42
2022-12-20T15:49:50.396Z,0.42
2022-12-20T15:53:03.099Z,0.42
2022-12-20T15:56:19.436Z,0.40
2022-12-20T16:03:02.212Z,0.30
2022-12-20T16:06:20.074Z,0.28
2022-12-20T16:09:27.791Z,0.22
2022-12-20T16:12:37.293Z,0.19
2022-12-20T16:15:55.105Z,0.15
2022-12-20T16:19:11.860Z,0.13
2022-12-20T16:22:28.964Z,0.10
2022-12-20T16:25:36.366Z,0.08
2022-12-20T16:28:39.870Z,0.07
2022-12-20T16:32:06.170Z,0.05
2022-12-20T16:35:38.294Z,0.03
2022-12-20T16:38:59.186Z,0.01
2022-12-20T16:42:24.101Z,0.01
2022-12-20T16:45:37.112Z,-0.01
2022-12-20T16:48:55.260Z,-0.01
2022-12-20T16:52:03.335Z,-0.01
2022-12-20T16:55:18.115Z,-0.03
2022-12-20T16:58:38.615Z,-0.03
2022-12-20T17:01:47.880Z,-0.06
2022-12-20T17:05:01.128Z,-0.04
2022-12-20T17:11:37.608Z,-0.04
2022-12-20T17:14:43.078Z,-0.05
2022-12-20T17:17:55.439Z,-0.09
2022-12-20T17:21:05.224Z,-0.10
2022-12-20T17:24:18.749Z,-0.10
2022-12-20T17:27:28.744Z,-0.10
2022-12-20T17:30:40.082Z,-0.10
2022-12-20T17:33:45.078Z,-0.11
2022-12-20T17:36:56.054Z,-0.11
2022-12-20T17:40:08.030Z,-0.11
2022-12-20T17:43:22.933Z,-0.16
2022-12-20T17:46:28.051Z,-0.15
2022-12-20T17:49:34.056Z,-0.16
2022-12-20T17:52:42.247Z,-0.17
2022-12-20T17:55:49.035Z,-0.22
2022-12-20T17:59:09.074Z,-0.22
2022-12-20T18:02:24.204Z,-0.24
2022-12-20T18:05:27.648Z,-0.27
2022-12-20T18:08:35.142Z,-0.27
2022-12-20T18:11:46.030Z,-0.23
2022-12-20T18:14:50.776Z,-0.26
2022-12-20T18:18:00.158Z,-0.28
2022-12-20T18:21:17.107Z,-0.31
2022-12-20T18:24:31.074Z,-0.36
2022-12-20T18:27:46.311Z,-0.41
2022-12-20T18:30:53.015Z,-0.43
2022-12-20T18:33:59.514Z,-0.47
2022-12-20T18:37:10.210Z,-0.48
2022-12-20T18:40:21.431Z,-0.47
2022-12-20T18:43:38.112Z,-0.51
2022-12-20T18:46:41.759Z,-0.53
2022-12-20T18:49:45.095Z,-0.51
2022-12-20T18:52:59.503Z,-0.51
2022-12-20T18:56:10.135Z,-0.51
2022-12-20T18:59:27.100Z,-0.53
2022-12-20T19:02:32.380Z,-0.57
2022-12-20T19:05:36.754Z,-0.61
2022-12-20T19:08:43.908Z,-0.65
2022-12-20T19:11:56.992Z,-0.66
2022-12-20T19:15:04.268Z,-0.70
2022-12-20T19:18:12.435Z,-0.74
2022-12-20T19:21:24.167Z,-0.75
2022-12-20T19:24:27.606Z,-0.75
2022-12-20T19:27:44.497Z,-0.75
2022-12-20T19:30:51.497Z,-0.71
2022-12-20T19:34:06.103Z,-0.71
2022-12-20T19:37:20.052Z,-0.73
2022-12-20T19:40:31.969Z,-0.68
2022-12-20T19:43:39.106Z,-0.66
2022-12-20T19:46:47.738Z,-0.62
2022-12-20T19:49:52.941Z,-0.62
2022-12-20T19:53:01.259Z,-0.62
2022-12-20T19:56:14.083Z,-0.63
2022-12-20T19:59:21.414Z,-0.62
2022-12-20T20:02:27.071Z,-0.61
2022-12-20T20:05:30.739Z,-0.62
2022-12-20T20:08:42.976Z,-0.62
2022-12-20T20:11:48.248Z,-0.56
2022-12-20T20:14:54.309Z,-0.59
2022-12-20T20:18:00.058Z,-0.60
2022-12-20T20:21:21.116Z,-0.61
2022-12-20T20:24:29.066Z,-0.63
2022-12-20T20:27:34.051Z,-0.67
2022-12-20T20:30:44.834Z,-0.70
2022-12-20T20:33:48.607Z,-0.70
2022-12-20T20:36:54.081Z,-0.68
2022-12-20T20:39:59.539Z,-0.71
2022-12-20T20:43:09.153Z,-0.74
2022-12-20T20:46:20.285Z,-0.77
2022-12-20T20:49:23.775Z,-0.81
2022-12-20T20:52:28.365Z,-0.81
2022-12-20T20:55:33.034Z,-0.83
2022-12-20T20:58:42.319Z,-0.87
2022-12-20T21:01:48.230Z,-0.90
2022-12-20T21:05:47.174Z,-0.87
2022-12-20T21:08:22.045Z,-0.90
2022-12-20T21:11:26.313Z,-0.87
2022-12-20T21:15:10.691Z,-0.88
2022-12-20T21:17:55.686Z,-0.91
2022-12-20T21:21:01.151Z,-0.93
2022-12-20T21:24:04.763Z,-0.89
2022-12-20T21:27:20.967Z,-0.88
2022-12-20T21:30:31.616Z,-0.87
2022-12-20T21:33:40.041Z,-0.86
2022-12-20T21:36:47.982Z,-0.83
2022-12-20T21:39:51.540Z,-0.84
2022-12-20T21:42:55.661Z,-0.82
2022-12-20T21:46:00.036Z,-0.83
2022-12-20T21:49:09.159Z,-0.80
2022-12-20T21:52:12.523Z,-0.80
2022-12-20T21:55:15.064Z,-0.79
2022-12-20T21:58:20.981Z,-0.73
2022-12-20T22:01:27.161Z,-0.72
2022-12-20T22:04:30.790Z,-0.69
2022-12-20T22:07:38.514Z,-0.65
2022-12-20T22:10:44.445Z,-0.64
2022-12-20T22:13:47.666Z,-0.62
2022-12-20T22:16:51.412Z,-0.60
2022-12-20T22:19:57.921Z,-0.59
2022-12-20T22:23:02.534Z,-0.56
2022-12-20T22:26:07.629Z,-0.59
2022-12-20T22:29:11.748Z,-0.56
2022-12-20T22:32:24.916Z,-0.56
2022-12-20T22:35:29.962Z,-0.55
2022-12-20T22:38:34.184Z,-0.52
2022-12-20T22:41:37.409Z,-0.51
2022-12-20T22:44:42.326Z,-0.51
2022-12-20T22:47:46.977Z,-0.50
2022-12-20T22:50:49.707Z,-0.50
2022-12-20T22:53:53.773Z,-0.50
2022-12-20T22:56:56.569Z,-0.49
2022-12-20T23:00:03.212Z,-0.46
2022-12-20T23:03:09.324Z,-0.46
2022-12-20T23:06:17.935Z,-0.44
2022-12-20T23:09:20.910Z,-0.45
2022-12-20T23:12:44.744Z,-0.44
2022-12-20T23:15:49.602Z,-0.44
2022-12-20T23:19:01.569Z,-0.42
2022-12-20T23:22:22.983Z,-0.42
2022-12-20T23:25:33.019Z,-0.43
2022-12-20T23:28:35.579Z,-0.41
2022-12-20T23:31:39.005Z,-0.38
2022-12-20T23:34:42.102Z,-0.38
2022-12-20T23:37:46.363Z,-0.35
2022-12-20T23:40:50.202Z,-0.35
2022-12-20T23:43:53.091Z,-0.34
2022-12-20T23:46:57.300Z,-0.34
2022-12-20T23:50:00.047Z,-0.34
2022-12-20T23:53:04.662Z,-0.35
2022-12-20T23:56:22.233Z,-0.34
2022-12-20T23:59:25.648Z,-0.32
